Time;durP1;ratioP1;P1;durP2;ratioP2;P2;SDS_P1;SDS_P2;PMS_P1;PMS_P2;Temp;Humidity;BMP_temperature;BMP_pressure;BME280_temperature;BME280_humidity;BME280_pressure;Samples;Min_cycle;Max_cycle;Signal;HPM_P1;HPM_P2
2022/05/18 00:00:27;;;;;;;;;;;22.30;47.90;;;;;;493297;241;1182;-76
2022/05/18 00:02:27;;;;;;;;;;;22.40;47.50;;;;;;493116;241;1514;-76
2022/05/18 00:04:29;;;;;;;;;;;22.50;47.40;;;;;;493276;241;1127;-76
2022/05/18 00:06:30;;;;;;;;;;;22.50;47.40;;;;;;493291;241;2199;-76
2022/05/18 00:08:35;;;;;;;;;;;22.50;47.40;;;;;;493229;241;1164;-76
2022/05/18 00:10:33;;;;;;;;;;;22.50;47.40;;;;;;493063;242;1456;-76
2022/05/18 00:12:34;;;;;;;;;;;22.40;47.30;;;;;;493207;241;1345;-76
2022/05/18 00:14:36;;;;;;;;;;;22.40;47.40;;;;;;493262;241;1279;-76
2022/05/18 00:16:37;;;;;;;;;;;22.50;47.30;;;;;;493236;241;1131;-76
2022/05/18 00:18:38;;;;;;;;;;;22.60;47.20;;;;;;493017;241;1280;-76
2022/05/18 00:20:40;;;;;;;;;;;22.60;47.10;;;;;;493273;241;1158;-76
2022/05/18 00:22:41;;;;;;;;;;;22.50;47.20;;;;;;493277;241;1137;-76
2022/05/18 00:24:42;;;;;;;;;;;22.50;47.10;;;;;;493329;241;1229;-77
2022/05/18 00:26:44;;;;;;;;;;;22.50;47.10;;;;;;493307;241;2171;-76
2022/05/18 00:28:45;;;;;;;;;;;22.50;47.10;;;;;;493275;241;1162;-77
2022/05/18 00:30:46;;;;;;;;;;;22.60;47.00;;;;;;493260;241;1084;-76
2022/05/18 00:32:48;;;;;;;;;;;22.50;47.00;;;;;;493417;241;1225;-76
2022/05/18 00:34:49;;;;;;;;;;;22.50;47.10;;;;;;493476;241;1185;-76
2022/05/18 00:36:50;;;;;;;;;;;22.60;46.90;;;;;;493151;241;1062;-76
2022/05/18 00:38:52;;;;;;;;;;;22.60;46.80;;;;;;493428;241;1240;-76
2022/05/18 00:40:53;;;;;;;;;;;22.60;46.90;;;;;;493345;241;1169;-76
2022/05/18 00:42:54;;;;;;;;;;;22.60;46.90;;;;;;493274;241;1131;-76
2022/05/18 00:44:56;;;;;;;;;;;22.50;47.00;;;;;;493376;241;1220;-76
2022/05/18 00:46:57;;;;;;;;;;;22.40;47.20;;;;;;493297;241;2136;-76
2022/05/18 00:48:58;;;;;;;;;;;22.40;47.20;;;;;;493280;241;1138;-76
2022/05/18 00:51:00;;;;;;;;;;;22.40;47.00;;;;;;493080;241;1136;-76
2022/05/18 00:53:01;;;;;;;;;;;22.40;47.10;;;;;;493161;241;1137;-76
2022/05/18 00:55:02;;;;;;;;;;;22.50;47.00;;;;;;493145;241;1160;-76
2022/05/18 00:57:04;;;;;;;;;;;22.50;46.80;;;;;;493254;241;1178;-76
2022/05/18 00:59:05;;;;;;;;;;;22.50;47.00;;;;;;493409;241;1076;-76
2022/05/18 01:01:07;;;;;;;;;;;22.50;46.80;;;;;;493383;241;1097;-76
2022/05/18 01:03:08;;;;;;;;;;;22.40;46.90;;;;;;493177;241;1406;-76
2022/05/18 01:05:09;;;;;;;;;;;22.50;46.70;;;;;;493188;241;1056;-76
2022/05/18 01:07:11;;;;;;;;;;;22.50;46.70;;;;;;493368;241;2191;-76
2022/05/18 01:09:12;;;;;;;;;;;22.40;47.00;;;;;;493211;241;1139;-76
2022/05/18 01:11:13;;;;;;;;;;;22.40;46.90;;;;;;493311;241;1101;-76
2022/05/18 01:13:15;;;;;;;;;;;22.30;47.10;;;;;;493514;241;1283;-76
2022/05/18 01:15:16;;;;;;;;;;;22.40;47.00;;;;;;493233;241;1160;-76
2022/05/18 01:17:17;;;;;;;;;;;22.50;47.00;;;;;;493295;241;1134;-77
2022/05/18 01:19:19;;;;;;;;;;;22.40;46.90;;;;;;493160;241;1185;-76
2022/05/18 01:21:20;;;;;;;;;;;22.40;46.80;;;;;;493268;241;1131;-76
2022/05/18 01:23:22;;;;;;;;;;;22.30;46.90;;;;;;493183;241;1180;-76
2022/05/18 01:25:23;;;;;;;;;;;22.30;47.00;;;;;;493371;241;1236;-76
2022/05/18 01:27:24;;;;;;;;;;;22.40;47.00;;;;;;493225;241;2119;-76
2022/05/18 01:29:26;;;;;;;;;;;22.30;47.20;;;;;;493384;241;1255;-76
2022/05/18 01:31:27;;;;;;;;;;;22.30;47.00;;;;;;493391;241;1267;-76
2022/05/18 01:33:28;;;;;;;;;;;22.50;46.90;;;;;;493129;241;1126;-76
2022/05/18 01:35:30;;;;;;;;;;;22.40;46.80;;;;;;493077;241;1153;-76
2022/05/18 01:37:31;;;;;;;;;;;22.30;46.80;;;;;;493320;241;1134;-77
2022/05/18 01:39:32;;;;;;;;;;;22.40;46.90;;;;;;493261;241;1073;-77
2022/05/18 01:41:34;;;;;;;;;;;22.40;46.70;;;;;;493249;241;1204;-76
2022/05/18 01:43:35;;;;;;;;;;;22.30;47.00;;;;;;493303;241;1162;-76
2022/05/18 01:45:36;;;;;;;;;;;22.30;47.00;;;;;;493251;241;1162;-76
2022/05/18 01:47:38;;;;;;;;;;;22.30;47.00;;;;;;493251;241;2180;-76
2022/05/18 01:49:39;;;;;;;;;;;22.30;46.80;;;;;;493400;241;1160;-76
2022/05/18 01:51:43;;;;;;;;;;;22.30;46.70;;;;;;493209;241;1092;-76
2022/05/18 01:53:42;;;;;;;;;;;22.40;46.60;;;;;;493218;242;1437;-76
2022/05/18 01:55:43;;;;;;;;;;;22.40;46.70;;;;;;493188;241;1095;-76
2022/05/18 01:57:45;;;;;;;;;;;22.30;46.80;;;;;;493186;241;1104;-77
2022/05/18 01:59:46;;;;;;;;;;;22.40;46.70;;;;;;493407;241;1144;-76
2022/05/18 02:01:48;;;;;;;;;;;22.40;46.60;;;;;;493148;241;1083;-76
2022/05/18 02:03:49;;;;;;;;;;;22.40;46.60;;;;;;493268;241;1441;-76
2022/05/18 02:05:50;;;;;;;;;;;22.40;46.50;;;;;;493258;241;1172;-76
2022/05/18 02:07:51;;;;;;;;;;;22.50;46.60;;;;;;493237;241;2175;-76
2022/05/18 02:09:53;;;;;;;;;;;22.30;46.70;;;;;;493511;241;1102;-76
2022/05/18 02:11:54;;;;;;;;;;;22.30;46.70;;;;;;493210;241;1120;-76
2022/05/18 02:13:55;;;;;;;;;;;22.30;46.70;;;;;;493334;241;1180;-76
2022/05/18 02:15:57;;;;;;;;;;;22.40;46.60;;;;;;493337;241;1163;-77
2022/05/18 02:17:58;;;;;;;;;;;22.40;46.60;;;;;;493318;241;1048;-76
2022/05/18 02:19:59;;;;;;;;;;;22.30;46.70;;;;;;493331;241;1239;-76
2022/05/18 02:22:00;;;;;;;;;;;22.10;46.90;;;;;;493463;241;1201;-76
2022/05/18 02:24:02;;;;;;;;;;;22.20;47.00;;;;;;493399;241;1216;-76
2022/05/18 02:26:03;;;;;;;;;;;22.00;47.30;;;;;;493469;241;1086;-76
2022/05/18 02:28:05;;;;;;;;;;;21.90;47.40;;;;;;493237;241;2186;-76
2022/05/18 02:30:06;;;;;;;;;;;22.00;47.40;;;;;;493538;241;1230;-76
2022/05/18 02:32:07;;;;;;;;;;;22.00;47.30;;;;;;493351;241;1154;-76
2022/05/18 02:34:09;;;;;;;;;;;21.90;47.50;;;;;;493297;241;1289;-76
2022/05/18 02:36:10;;;;;;;;;;;21.90;47.50;;;;;;493518;241;1089;-76
2022/05/18 02:38:11;;;;;;;;;;;21.90;47.60;;;;;;493306;241;1313;-77
2022/05/18 02:40:13;;;;;;;;;;;21.90;47.60;;;;;;493316;241;1267;-76
2022/05/18 02:42:14;;;;;;;;;;;21.90;47.50;;;;;;493492;241;1137;-76
2022/05/18 02:44:15;;;;;;;;;;;21.80;47.60;;;;;;493300;241;1181;-76
2022/05/18 02:46:17;;;;;;;;;;;21.90;47.60;;;;;;493219;241;1096;-76
2022/05/18 02:48:18;;;;;;;;;;;21.80;47.60;;;;;;493502;241;2183;-76
2022/05/18 02:50:19;;;;;;;;;;;21.80;47.80;;;;;;493264;241;1143;-76
2022/05/18 02:52:21;;;;;;;;;;;21.80;47.80;;;;;;493281;241;1113;-76
2022/05/18 02:56:41;;;;;;;;;;;21.70;47.80;;;;;;493445;242;1121;-77
2022/05/18 02:58:43;;;;;;;;;;;21.70;47.80;;;;;;493189;241;1244;-76
2022/05/18 03:00:44;;;;;;;;;;;21.70;47.90;;;;;;493452;241;1120;-76
2022/05/18 03:02:45;;;;;;;;;;;21.70;47.90;;;;;;493291;241;1146;-76
2022/05/18 03:04:47;;;;;;;;;;;21.80;47.80;;;;;;493406;241;1128;-77
2022/05/18 03:06:48;;;;;;;;;;;21.80;47.80;;;;;;493391;241;2195;-76
2022/05/18 03:08:50;;;;;;;;;;;21.80;47.70;;;;;;493335;241;1188;-76
2022/05/18 03:10:51;;;;;;;;;;;21.70;47.70;;;;;;493344;241;1447;-76
2022/05/18 03:12:52;;;;;;;;;;;21.80;47.90;;;;;;493467;241;1126;-76
2022/05/18 03:14:53;;;;;;;;;;;21.80;47.90;;;;;;493336;241;1162;-76
2022/05/18 03:16:55;;;;;;;;;;;21.70;47.80;;;;;;493274;241;1187;-76
2022/05/18 03:18:56;;;;;;;;;;;21.70;48.00;;;;;;493244;241;1081;-76
2022/05/18 03:23:35;;;;;;;;;;;21.70;47.90;;;;;;493513;242;1185;-76
2022/05/18 03:25:36;;;;;;;;;;;21.80;47.90;;;;;;493241;241;1158;-76
2022/05/18 03:27:37;;;;;;;;;;;21.70;47.90;;;;;;493296;241;2191;-76
2022/05/18 03:29:38;;;;;;;;;;;21.80;47.90;;;;;;493199;241;1141;-77
2022/05/18 03:31:40;;;;;;;;;;;21.70;47.80;;;;;;493301;241;1207;-76
2022/05/18 03:33:41;;;;;;;;;;;21.80;47.70;;;;;;493410;241;1197;-76
2022/05/18 03:35:42;;;;;;;;;;;21.90;47.70;;;;;;493190;241;1167;-76
2022/05/18 03:37:44;;;;;;;;;;;22.10;47.30;;;;;;493304;241;1242;-76
2022/05/18 03:39:46;;;;;;;;;;;22.40;46.80;;;;;;493477;241;1143;-76
2022/05/18 03:41:47;;;;;;;;;;;22.50;46.40;;;;;;493255;241;1300;-76
2022/05/18 03:43:48;;;;;;;;;;;22.70;45.80;;;;;;493184;241;1144;-77
2022/05/18 03:45:49;;;;;;;;;;;22.70;45.80;;;;;;493322;241;1141;-76
2022/05/18 03:47:51;;;;;;;;;;;22.80;45.60;;;;;;493105;241;2192;-76
2022/05/18 03:49:52;;;;;;;;;;;22.90;45.60;;;;;;493394;241;1197;-76
2022/05/18 03:51:53;;;;;;;;;;;22.90;45.30;;;;;;493172;241;1194;-76
2022/05/18 03:53:55;;;;;;;;;;;23.00;45.10;;;;;;493397;241;1261;-76
2022/05/18 03:55:56;;;;;;;;;;;22.90;45.20;;;;;;493265;239;1229;-76
2022/05/18 03:57:57;;;;;;;;;;;22.90;45.20;;;;;;493499;241;1188;-76
2022/05/18 03:59:59;;;;;;;;;;;22.80;45.50;;;;;;493511;241;1192;-76
2022/05/18 04:02:00;;;;;;;;;;;22.80;45.30;;;;;;493414;241;1140;-77
2022/05/18 04:04:01;;;;;;;;;;;22.90;45.00;;;;;;493513;241;1073;-78
2022/05/18 04:06:03;;;;;;;;;;;22.80;45.40;;;;;;493283;241;1271;-78
2022/05/18 04:08:04;;;;;;;;;;;23.10;45.00;;;;;;493306;241;2179;-78
2022/05/18 04:10:06;;;;;;;;;;;23.10;44.90;;;;;;493384;241;1153;-78
2022/05/18 04:12:07;;;;;;;;;;;23.20;44.60;;;;;;493423;241;1183;-76
2022/05/18 04:14:08;;;;;;;;;;;23.30;44.40;;;;;;493635;241;1045;-76
2022/05/18 04:16:09;;;;;;;;;;;23.20;44.50;;;;;;493431;241;1179;-79
2022/05/18 04:18:11;;;;;;;;;;;23.40;44.20;;;;;;493379;241;1109;-78
2022/05/18 04:20:12;;;;;;;;;;;23.20;44.40;;;;;;493324;241;1165;-79
2022/05/18 04:22:13;;;;;;;;;;;23.30;44.30;;;;;;493405;241;1148;-79
2022/05/18 04:24:15;;;;;;;;;;;23.20;44.30;;;;;;493527;241;1262;-78
2022/05/18 04:26:16;;;;;;;;;;;23.30;44.30;;;;;;493351;241;1276;-79
2022/05/18 04:28:17;;;;;;;;;;;23.20;44.40;;;;;;493300;241;2195;-79
2022/05/18 04:30:19;;;;;;;;;;;23.20;44.50;;;;;;493360;241;1226;-79
2022/05/18 04:32:20;;;;;;;;;;;23.30;44.30;;;;;;493274;241;1095;-79
2022/05/18 04:34:22;;;;;;;;;;;23.30;44.30;;;;;;493365;241;1132;-79
2022/05/18 04:36:23;;;;;;;;;;;23.30;44.10;;;;;;493321;241;1170;-79
2022/05/18 04:38:24;;;;;;;;;;;23.20;44.40;;;;;;493469;241;1160;-79
2022/05/18 04:40:25;;;;;;;;;;;23.20;44.40;;;;;;493354;241;1091;-79
2022/05/18 04:42:27;;;;;;;;;;;23.20;44.60;;;;;;493399;241;1231;-79
2022/05/18 04:44:28;;;;;;;;;;;23.10;44.60;;;;;;493337;241;1099;-78
2022/05/18 04:46:29;;;;;;;;;;;23.10;44.60;;;;;;493182;241;1081;-78
2022/05/18 04:48:31;;;;;;;;;;;23.20;44.60;;;;;;493323;241;2183;-79
2022/05/18 04:50:32;;;;;;;;;;;23.30;44.50;;;;;;493200;241;1020;-80
2022/05/18 04:52:34;;;;;;;;;;;23.30;44.30;;;;;;493312;241;1153;-78
2022/05/18 04:54:35;;;;;;;;;;;23.30;44.10;;;;;;493521;241;1160;-77
2022/05/18 04:56:36;;;;;;;;;;;23.30;44.30;;;;;;493238;241;1077;-78
2022/05/18 04:58:38;;;;;;;;;;;23.30;44.40;;;;;;493256;241;1173;-79
2022/05/18 05:00:39;;;;;;;;;;;23.20;44.50;;;;;;493208;241;1130;-79
2022/05/18 05:02:40;;;;;;;;;;;23.20;44.70;;;;;;493406;241;1106;-76
2022/05/18 05:04:42;;;;;;;;;;;23.20;44.60;;;;;;493125;241;1198;-79
2022/05/18 05:06:43;;;;;;;;;;;23.20;44.70;;;;;;493266;241;1110;-77
2022/05/18 05:08:44;;;;;;;;;;;23.20;44.60;;;;;;493352;241;2163;-77
2022/05/18 05:10:46;;;;;;;;;;;23.30;44.50;;;;;;493207;241;1107;-78
2022/05/18 05:12:47;;;;;;;;;;;23.40;44.40;;;;;;493363;241;1058;-78
2022/05/18 05:14:48;;;;;;;;;;;23.30;44.40;;;;;;493379;241;1173;-79
2022/05/18 05:16:50;;;;;;;;;;;23.40;44.30;;;;;;493371;241;1108;-79
2022/05/18 05:18:51;;;;;;;;;;;23.50;44.20;;;;;;493204;241;1129;-79
2022/05/18 05:20:52;;;;;;;;;;;23.30;44.50;;;;;;493237;241;1054;-76
2022/05/18 05:22:54;;;;;;;;;;;23.20;44.60;;;;;;493253;241;1190;-79
2022/05/18 05:24:55;;;;;;;;;;;23.30;44.60;;;;;;493076;241;1198;-79
2022/05/18 05:26:56;;;;;;;;;;;23.20;44.70;;;;;;493091;241;1098;-79
2022/05/18 05:28:58;;;;;;;;;;;23.30;44.70;;;;;;493243;241;2176;-79
2022/05/18 05:30:59;;;;;;;;;;;23.20;44.70;;;;;;493181;241;1255;-79
2022/05/18 05:33:00;;;;;;;;;;;23.30;44.60;;;;;;493367;241;1171;-79
2022/05/18 05:35:02;;;;;;;;;;;23.20;44.70;;;;;;493162;241;1143;-76
2022/05/18 05:37:03;;;;;;;;;;;23.30;44.50;;;;;;493243;241;1071;-79
2022/05/18 05:39:04;;;;;;;;;;;23.30;44.50;;;;;;492968;241;1200;-78
2022/05/18 05:41:06;;;;;;;;;;;23.20;44.60;;;;;;493203;241;1116;-78
2022/05/18 05:43:07;;;;;;;;;;;23.30;44.50;;;;;;492985;241;1148;-78
2022/05/18 05:45:08;;;;;;;;;;;23.30;44.50;;;;;;492969;241;1073;-79
2022/05/18 05:47:11;;;;;;;;;;;23.40;44.30;;;;;;493202;241;1206;-79
2022/05/18 05:49:11;;;;;;;;;;;23.40;44.50;;;;;;493091;242;2187;-78
2022/05/18 05:51:13;;;;;;;;;;;23.40;44.40;;;;;;493204;241;1107;-78
2022/05/18 05:53:13;;;;;;;;;;;23.50;44.40;;;;;;493323;241;1387;-79
2022/05/18 05:55:15;;;;;;;;;;;23.50;44.30;;;;;;493147;241;1098;-79
2022/05/18 05:57:16;;;;;;;;;;;23.40;44.40;;;;;;493189;241;1158;-79
2022/05/18 05:59:21;;;;;;;;;;;23.40;44.50;;;;;;492983;241;1158;-79
2022/05/18 06:01:19;;;;;;;;;;;23.50;44.50;;;;;;492853;242;1430;-78
2022/05/18 06:03:21;;;;;;;;;;;23.30;44.60;;;;;;493031;241;1200;-79
2022/05/18 06:05:22;;;;;;;;;;;23.40;44.80;;;;;;492931;241;1295;-78
2022/05/18 06:07:23;;;;;;;;;;;23.40;44.70;;;;;;493131;241;1148;-79
2022/05/18 06:09:25;;;;;;;;;;;23.50;44.50;;;;;;492825;241;2155;-79
2022/05/18 06:11:27;;;;;;;;;;;23.40;44.70;;;;;;492907;241;1200;-79
2022/05/18 06:13:27;;;;;;;;;;;23.60;44.50;;;;;;492684;242;1314;-78
2022/05/18 06:15:28;;;;;;;;;;;23.50;44.50;;;;;;492746;241;1079;-79
2022/05/18 06:17:30;;;;;;;;;;;23.50;44.60;;;;;;492711;241;1186;-79
2022/05/18 06:19:33;;;;;;;;;;;23.50;44.50;;;;;;492753;241;1008;-79
2022/05/18 06:21:32;;;;;;;;;;;23.40;44.70;;;;;;492654;242;1452;-78
2022/05/18 06:23:34;;;;;;;;;;;23.40;44.70;;;;;;492819;241;1148;-79
2022/05/18 06:25:35;;;;;;;;;;;23.30;44.90;;;;;;492790;241;1219;-78
2022/05/18 06:27:36;;;;;;;;;;;23.40;44.90;;;;;;492737;241;1112;-79
2022/05/18 06:29:38;;;;;;;;;;;23.40;44.90;;;;;;492666;241;2196;-79
2022/05/18 06:31:39;;;;;;;;;;;23.50;44.70;;;;;;492737;241;1207;-79
2022/05/18 06:33:40;;;;;;;;;;;23.60;44.70;;;;;;492676;241;1224;-79
2022/05/18 06:35:42;;;;;;;;;;;23.60;44.70;;;;;;492643;241;1125;-79
2022/05/18 06:37:43;;;;;;;;;;;23.60;44.60;;;;;;492996;241;1193;-77
2022/05/18 06:39:44;;;;;;;;;;;23.50;44.80;;;;;;492909;241;1085;-77
2022/05/18 06:41:46;;;;;;;;;;;23.60;44.70;;;;;;492689;241;1175;-78
2022/05/18 06:43:47;;;;;;;;;;;23.60;44.70;;;;;;492777;241;1178;-78
2022/05/18 06:45:48;;;;;;;;;;;23.40;45.00;;;;;;492416;241;1061;-78
2022/05/18 06:47:50;;;;;;;;;;;23.50;45.00;;;;;;493194;241;1024;-75
2022/05/18 06:49:51;;;;;;;;;;;23.60;44.90;;;;;;492794;241;2163;-76
2022/05/18 06:51:52;;;;;;;;;;;23.60;44.90;;;;;;492533;241;1078;-78
2022/05/18 06:53:54;;;;;;;;;;;23.50;45.10;;;;;;492673;241;1306;-78
2022/05/18 06:55:55;;;;;;;;;;;23.40;45.20;;;;;;492448;241;1220;-78
2022/05/18 06:57:56;;;;;;;;;;;23.60;45.00;;;;;;492433;241;1275;-79
2022/05/18 06:59:57;;;;;;;;;;;23.60;44.90;;;;;;492370;241;1195;-78
2022/05/18 07:01:59;;;;;;;;;;;23.70;44.90;;;;;;492603;241;1294;-78
2022/05/18 07:04:00;;;;;;;;;;;23.60;45.00;;;;;;492471;241;1425;-78
2022/05/18 07:06:02;;;;;;;;;;;23.60;44.90;;;;;;492507;241;1195;-78
2022/05/18 07:08:03;;;;;;;;;;;23.70;45.00;;;;;;492545;241;2164;-78
2022/05/18 07:10:05;;;;;;;;;;;23.80;44.80;;;;;;492627;241;1139;-78
2022/05/18 07:12:06;;;;;;;;;;;23.80;44.80;;;;;;492486;241;1144;-79
2022/05/18 07:14:07;;;;;;;;;;;23.80;44.80;;;;;;492188;241;1115;-78
2022/05/18 07:16:09;;;;;;;;;;;23.70;44.80;;;;;;492180;241;1229;-78
2022/05/18 07:18:10;;;;;;;;;;;23.80;44.70;;;;;;492699;241;1087;-78
2022/05/18 07:20:11;;;;;;;;;;;23.70;44.90;;;;;;492516;241;1187;-79
2022/05/18 07:22:13;;;;;;;;;;;23.60;45.20;;;;;;492576;241;1156;-78
2022/05/18 07:24:14;;;;;;;;;;;23.60;45.20;;;;;;492524;241;1229;-77
2022/05/18 07:26:16;;;;;;;;;;;23.60;45.20;;;;;;492581;241;1168;-78
2022/05/18 07:28:17;;;;;;;;;;;23.70;45.00;;;;;;493013;241;2191;-78
2022/05/18 07:30:18;;;;;;;;;;;23.60;45.10;;;;;;493083;241;1364;-78
2022/05/18 07:32:20;;;;;;;;;;;23.70;45.10;;;;;;492855;241;1150;-78
2022/05/18 07:34:21;;;;;;;;;;;23.60;45.20;;;;;;492280;241;1065;-78
2022/05/18 07:36:23;;;;;;;;;;;23.70;45.00;;;;;;492678;241;1094;-78
2022/05/18 07:38:24;;;;;;;;;;;23.70;44.90;;;;;;492616;241;1072;-78
2022/05/18 07:40:25;;;;;;;;;;;23.70;45.00;;;;;;492362;241;1232;-78
2022/05/18 07:42:27;;;;;;;;;;;23.70;45.00;;;;;;492120;241;1086;-78
2022/05/18 07:44:28;;;;;;;;;;;23.70;44.90;;;;;;492146;241;1565;-78
2022/05/18 07:46:29;;;;;;;;;;;23.70;45.00;;;;;;492492;241;1113;-78
2022/05/18 07:48:31;;;;;;;;;;;23.70;45.20;;;;;;492834;241;2183;-78
2022/05/18 07:50:32;;;;;;;;;;;23.70;45.10;;;;;;492670;241;1040;-78
2022/05/18 07:52:33;;;;;;;;;;;23.70;45.10;;;;;;492759;241;1056;-78
2022/05/18 07:54:35;;;;;;;;;;;23.70;45.10;;;;;;492856;241;1130;-78
2022/05/18 07:56:36;;;;;;;;;;;23.60;45.20;;;;;;492515;241;1254;-78
2022/05/18 07:58:37;;;;;;;;;;;23.60;45.20;;;;;;492699;241;1166;-78
2022/05/18 08:00:38;;;;;;;;;;;23.60;45.50;;;;;;492475;241;1190;-78
2022/05/18 08:02:40;;;;;;;;;;;23.70;45.40;;;;;;492239;241;1278;-78
2022/05/18 08:04:41;;;;;;;;;;;23.80;45.50;;;;;;492152;241;1076;-78
2022/05/18 08:06:43;;;;;;;;;;;23.90;45.50;;;;;;492076;241;1126;-78
2022/05/18 08:08:44;;;;;;;;;;;23.80;45.60;;;;;;492188;241;2183;-78
2022/05/18 08:15:23;;;;;;;;;;;23.90;45.50;;;;;;492824;242;1290;-79
2022/05/18 08:17:24;;;;;;;;;;;24.00;45.50;;;;;;492267;241;1155;-78
2022/05/18 08:19:26;;;;;;;;;;;24.10;45.50;;;;;;492434;241;1376;-79
2022/05/18 08:21:27;;;;;;;;;;;24.10;45.30;;;;;;492158;241;1213;-78
2022/05/18 08:23:28;;;;;;;;;;;24.10;45.40;;;;;;492555;241;1140;-78
2022/05/18 08:25:30;;;;;;;;;;;24.00;45.50;;;;;;492391;241;1186;-78
2022/05/18 08:27:31;;;;;;;;;;;24.10;45.60;;;;;;492582;241;1173;-78
2022/05/18 08:29:33;;;;;;;;;;;24.10;45.60;;;;;;492159;241;2203;-78
2022/05/18 08:31:34;;;;;;;;;;;24.10;45.50;;;;;;492411;241;1089;-78
2022/05/18 08:33:35;;;;;;;;;;;24.20;45.50;;;;;;492463;241;1111;-78
2022/05/18 08:35:36;;;;;;;;;;;24.10;45.50;;;;;;492302;241;1186;-78
2022/05/18 08:37:38;;;;;;;;;;;24.10;45.60;;;;;;492749;241;1072;-78
2022/05/18 08:39:39;;;;;;;;;;;24.20;45.60;;;;;;492604;241;1097;-78
2022/05/18 08:41:41;;;;;;;;;;;24.20;45.50;;;;;;492349;241;1102;-78
2022/05/18 08:43:42;;;;;;;;;;;24.20;45.60;;;;;;492253;242;1308;-78
2022/05/18 08:45:43;;;;;;;;;;;24.10;45.70;;;;;;492659;239;1075;-78
2022/05/18 08:47:44;;;;;;;;;;;24.10;45.80;;;;;;492644;241;1153;-78
2022/05/18 08:49:46;;;;;;;;;;;24.10;45.70;;;;;;492925;241;2190;-79
2022/05/18 08:51:48;;;;;;;;;;;24.20;45.70;;;;;;492636;241;1080;-78
2022/05/18 08:53:49;;;;;;;;;;;24.30;45.70;;;;;;492249;241;1947;-78
2022/05/18 08:55:50;;;;;;;;;;;24.30;45.40;;;;;;492273;241;1064;-78
2022/05/18 08:57:52;;;;;;;;;;;24.20;45.40;;;;;;492471;241;1129;-78
2022/05/18 08:59:52;;;;;;;;;;;24.10;45.60;;;;;;492676;242;1293;-78
2022/05/18 09:01:57;;;;;;;;;;;24.10;45.50;;;;;;492109;241;1089;-78
2022/05/18 09:03:55;;;;;;;;;;;24.00;45.60;;;;;;492425;242;1332;-78
2022/05/18 09:05:57;;;;;;;;;;;24.00;45.50;;;;;;492685;241;1199;-78
2022/05/18 09:07:58;;;;;;;;;;;24.00;45.80;;;;;;492483;241;1194;-78
2022/05/18 09:10:16;;;;;;;;;;;24.00;45.80;;;;;;492241;241;2176;-78
2022/05/18 09:12:15;;;;;;;;;;;24.00;45.90;;;;;;492461;242;1322;-79
2022/05/18 09:14:17;;;;;;;;;;;24.00;45.70;;;;;;492653;241;1074;-79
2022/05/18 09:16:19;;;;;;;;;;;24.00;45.70;;;;;;492574;241;1151;-79
2022/05/18 09:18:20;;;;;;;;;;;24.00;45.90;;;;;;492722;241;1110;-78
2022/05/18 09:20:22;;;;;;;;;;;24.00;45.80;;;;;;492398;241;1195;-78
2022/05/18 09:22:23;;;;;;;;;;;24.00;45.90;;;;;;492812;241;2295;-78
2022/05/18 09:24:24;;;;;;;;;;;23.90;45.90;;;;;;492422;241;1351;-78
2022/05/18 09:26:26;;;;;;;;;;;23.90;46.10;;;;;;492402;241;1342;-78
2022/05/18 09:28:27;;;;;;;;;;;23.90;46.00;;;;;;492340;242;1289;-78
2022/05/18 09:30:28;;;;;;;;;;;23.80;46.10;;;;;;492490;241;2199;-78
2022/05/18 09:32:29;;;;;;;;;;;23.70;46.10;;;;;;492571;241;1102;-79
2022/05/18 09:34:31;;;;;;;;;;;23.70;46.20;;;;;;492167;241;1079;-78
2022/05/18 09:36:32;;;;;;;;;;;23.70;46.20;;;;;;492099;242;1245;-78
2022/05/18 09:38:33;;;;;;;;;;;23.80;46.10;;;;;;492683;241;1264;-79
2022/05/18 09:40:34;;;;;;;;;;;23.80;46.00;;;;;;492301;241;1088;-79
2022/05/18 09:42:37;;;;;;;;;;;23.80;46.10;;;;;;492535;241;1107;-79
2022/05/18 09:44:37;;;;;;;;;;;23.80;46.10;;;;;;492572;242;1476;-79
2022/05/18 09:46:39;;;;;;;;;;;23.80;46.10;;;;;;492339;241;1159;-78
2022/05/18 09:48:40;;;;;;;;;;;23.80;46.20;;;;;;492105;241;1222;-78
2022/05/18 09:50:41;;;;;;;;;;;23.70;46.10;;;;;;492600;241;2175;-78
2022/05/18 09:52:42;;;;;;;;;;;23.70;46.30;;;;;;492135;241;1172;-78
2022/05/18 09:54:44;;;;;;;;;;;23.80;46.10;;;;;;492470;240;1126;-78
2022/05/18 09:56:45;;;;;;;;;;;23.90;46.10;;;;;;492591;241;1058;-78
2022/05/18 09:58:46;;;;;;;;;;;23.80;46.00;;;;;;492367;241;1099;-77
2022/05/18 10:00:48;;;;;;;;;;;23.70;46.00;;;;;;492531;241;1038;-77
2022/05/18 10:07:30;;;;;;;;;;;23.80;46.00;;;;;;492514;242;1180;-78
2022/05/18 10:09:29;;;;;;;;;;;23.80;45.90;;;;;;492592;241;2219;-78
2022/05/18 10:11:30;;;;;;;;;;;23.70;46.00;;;;;;492364;242;1122;-78
2022/05/18 10:13:32;;;;;;;;;;;23.70;46.10;;;;;;492656;241;1215;-78
2022/05/18 10:15:34;;;;;;;;;;;23.70;46.20;;;;;;492779;241;1130;-79
2022/05/18 10:17:35;;;;;;;;;;;23.70;46.10;;;;;;493196;241;1063;-79
2022/05/18 10:19:36;;;;;;;;;;;23.70;46.10;;;;;;492943;241;1185;-79
2022/05/18 10:21:37;;;;;;;;;;;23.60;46.20;;;;;;492924;241;1180;-79
2022/05/18 10:23:39;;;;;;;;;;;23.70;46.00;;;;;;492907;241;1125;-78
2022/05/18 10:25:40;;;;;;;;;;;23.70;46.10;;;;;;492676;241;1223;-78
2022/05/18 10:27:42;;;;;;;;;;;23.70;46.10;;;;;;492759;241;1137;-78
2022/05/18 10:29:43;;;;;;;;;;;23.70;46.00;;;;;;492445;241;2183;-78
2022/05/18 10:31:46;;;;;;;;;;;23.80;46.00;;;;;;492725;241;1189;-78
2022/05/18 10:33:45;;;;;;;;;;;23.70;46.10;;;;;;492814;242;1443;-79
2022/05/18 10:35:49;;;;;;;;;;;23.80;46.20;;;;;;493370;241;1245;-78
2022/05/18 10:37:55;;;;;;;;;;;23.70;46.40;;;;;;493622;241;1872;-78
2022/05/18 10:40:03;;;;;;;;;;;23.80;46.40;;;;;;493578;241;1150;-78
2022/05/18 10:42:04;;;;;;;;;;;23.70;46.70;;;;;;493070;241;2410;-78
2022/05/18 10:44:06;;;;;;;;;;;23.80;47.20;;;;;;492775;241;1343;-78
2022/05/18 10:46:07;;;;;;;;;;;23.80;47.00;;;;;;492999;241;1127;-78
2022/05/18 10:48:08;;;;;;;;;;;23.90;46.80;;;;;;492923;241;1141;-79
2022/05/18 10:50:09;;;;;;;;;;;23.80;46.80;;;;;;492894;241;2186;-79
2022/05/18 10:52:11;;;;;;;;;;;23.90;46.70;;;;;;492785;241;1274;-79
2022/05/18 10:54:12;;;;;;;;;;;23.90;46.60;;;;;;492629;241;1194;-78
2022/05/18 10:56:14;;;;;;;;;;;24.00;46.50;;;;;;492496;241;1153;-78
2022/05/18 10:58:15;;;;;;;;;;;24.10;46.50;;;;;;493382;241;1137;-78
2022/05/18 11:00:17;;;;;;;;;;;24.00;46.60;;;;;;492428;241;1198;-79
2022/05/18 11:02:18;;;;;;;;;;;24.00;46.80;;;;;;492741;241;1836;-79
2022/05/18 11:04:19;;;;;;;;;;;24.10;46.80;;;;;;492875;241;1290;-78
2022/05/18 11:06:21;;;;;;;;;;;24.00;46.70;;;;;;492607;241;1313;-78
2022/05/18 11:08:22;;;;;;;;;;;24.10;46.60;;;;;;492913;241;1178;-78
2022/05/18 11:10:24;;;;;;;;;;;24.20;46.60;;;;;;492560;241;2190;-79
2022/05/18 11:12:25;;;;;;;;;;;24.10;46.70;;;;;;492556;241;1254;-79
2022/05/18 11:14:26;;;;;;;;;;;24.10;46.60;;;;;;492669;241;1113;-79
2022/05/18 11:16:28;;;;;;;;;;;24.20;46.50;;;;;;492724;241;1200;-78
2022/05/18 11:18:29;;;;;;;;;;;24.20;46.50;;;;;;492698;239;1060;-80
2022/05/18 11:20:31;;;;;;;;;;;24.20;46.50;;;;;;493002;241;1169;-79
2022/05/18 11:22:32;;;;;;;;;;;24.20;46.40;;;;;;493116;241;1052;-79
2022/05/18 11:24:34;;;;;;;;;;;24.30;46.30;;;;;;492863;241;1191;-79
2022/05/18 11:26:34;;;;;;;;;;;24.30;46.40;;;;;;492762;241;1859;-79
2022/05/18 11:28:36;;;;;;;;;;;24.30;46.30;;;;;;492699;241;1108;-79
2022/05/18 11:30:37;;;;;;;;;;;24.40;46.30;;;;;;492757;241;2132;-79
2022/05/18 11:32:39;;;;;;;;;;;24.30;46.40;;;;;;492948;241;1056;-78
2022/05/18 11:34:40;;;;;;;;;;;24.30;46.40;;;;;;492620;241;1414;-79
2022/05/18 11:36:41;;;;;;;;;;;24.30;46.30;;;;;;492779;242;1241;-79
2022/05/18 11:38:42;;;;;;;;;;;24.30;46.30;;;;;;492886;241;1170;-78
2022/05/18 11:40:44;;;;;;;;;;;24.30;46.30;;;;;;492452;241;1149;-78
2022/05/18 11:42:45;;;;;;;;;;;24.30;46.40;;;;;;492815;241;1269;-79
2022/05/18 11:44:46;;;;;;;;;;;24.40;46.20;;;;;;492389;241;1163;-78
2022/05/18 11:46:48;;;;;;;;;;;24.30;46.20;;;;;;492578;241;1151;-78
2022/05/18 11:48:49;;;;;;;;;;;24.30;46.20;;;;;;492598;241;993;-78
2022/05/18 11:50:50;;;;;;;;;;;24.30;46.10;;;;;;492519;241;2191;-78
2022/05/18 11:52:52;;;;;;;;;;;24.30;45.90;;;;;;492591;241;1072;-78
2022/05/18 11:54:53;;;;;;;;;;;24.20;45.90;;;;;;492489;241;1151;-78
2022/05/18 11:56:54;;;;;;;;;;;24.10;46.00;;;;;;492643;241;1277;-79
2022/05/18 11:59:09;;;;;;;;;;;24.10;46.00;;;;;;492662;241;1094;-79
2022/05/18 12:00:59;;;;;;;;;;;24.00;46.00;;;;;;491428;242;1417;-78
2022/05/18 12:03:00;;;;;;;;;;;24.10;45.90;;;;;;492247;241;1161;-78
2022/05/18 12:05:02;;;;;;;;;;;24.10;45.80;;;;;;492121;241;1182;-78
2022/05/18 12:07:03;;;;;;;;;;;24.10;45.80;;;;;;492257;241;1207;-78
2022/05/18 12:09:04;;;;;;;;;;;24.10;45.90;;;;;;492367;241;1111;-78
2022/05/18 12:11:05;;;;;;;;;;;24.00;45.80;;;;;;492474;241;2479;-78